Time;durP1;ratioP1;P1;durP2;ratioP2;P2;SDS_P1;SDS_P2;PMS_P1;PMS_P2;Temp;Humidity;BMP_temperature;BMP_pressure;BME280_temperature;BME280_humidity;BME280_pressure;Samples;Min_cycle;Max_cycle;Signal;HPM_P1;HPM_P2
2023/05/02 00:03:49;;;;;;;5.30;2.65;;;;;;;;;;10326731;28;20043;-58
2023/05/02 00:08:50;;;;;;;4.68;2.58;;;;;;;;;;10309055;28;20034;-60
2023/05/02 00:13:50;;;;;;;4.05;2.50;;;;;;;;;;10314388;28;20027;-59
2023/05/02 00:18:51;;;;;;;4.82;2.65;;;;;;;;;;10327554;28;20038;-60
2023/05/02 00:23:52;;;;;;;3.83;2.60;;;;;;;;;;10327421;28;20096;-59
2023/05/02 00:28:53;;;;;;;4.40;2.58;;;;;;;;;;10317131;28;20038;-60
2023/05/02 00:33:55;;;;;;;4.93;2.40;;;;;;;;;;10307137;28;20042;-60
2023/05/02 00:38:55;;;;;;;3.47;2.15;;;;;;;;;;10324431;28;20050;-59
2023/05/02 00:43:57;;;;;;;3.85;2.35;;;;;;;;;;10323576;28;20402;-60
2023/05/02 00:48:59;;;;;;;3.50;2.38;;;;;;;;;;10324131;28;20030;-60
2023/05/02 00:54:00;;;;;;;5.85;2.00;;;;;;;;;;10325639;28;20031;-60
2023/05/02 00:59:01;;;;;;;5.68;2.40;;;;;;;;;;10325713;28;20045;-58
2023/05/02 01:04:49;;;;;;;2.65;2.30;;;;;;;;;;10323346;28;20034;-55
2023/05/02 01:10:20;;;;;;;2.58;1.88;;;;;;;;;;10320983;28;20513;-57
2023/05/02 01:15:22;;;;;;;3.83;2.42;;;;;;;;;;10324152;28;20026;-55
2023/05/02 01:20:27;;;;;;;3.15;2.28;;;;;;;;;;10321173;28;20407;-55
2023/05/02 01:25:45;;;;;;;4.00;2.03;;;;;;;;;;10307327;28;20117;-56
2023/05/02 01:30:48;;;;;;;3.00;2.10;;;;;;;;;;10306122;28;20034;-59
2023/05/02 01:35:51;;;;;;;3.45;1.77;;;;;;;;;;10307308;28;20093;-58
2023/05/02 01:40:53;;;;;;;3.40;2.35;;;;;;;;;;10306251;28;20051;-58
2023/05/02 01:45:56;;;;;;;4.45;2.42;;;;;;;;;;10309387;28;20049;-59
2023/05/02 01:50:58;;;;;;;4.28;2.22;;;;;;;;;;10306560;28;20038;-57
2023/05/02 01:55:59;;;;;;;4.53;1.88;;;;;;;;;;10312528;28;20034;-58
2023/05/02 02:01:00;;;;;;;2.53;2.20;;;;;;;;;;10302378;28;20069;-59
2023/05/02 02:06:02;;;;;;;3.75;2.03;;;;;;;;;;10324013;28;20034;-60
2023/05/02 02:11:09;;;;;;;2.40;2.00;;;;;;;;;;10305871;28;20038;-60
2023/05/02 02:16:13;;;;;;;3.17;1.95;;;;;;;;;;10309328;28;20449;-60
2023/05/02 02:21:19;;;;;;;1.85;1.55;;;;;;;;;;10313217;28;20080;-61
2023/05/02 02:26:21;;;;;;;3.25;1.90;;;;;;;;;;10313298;28;20036;-60
2023/05/02 02:31:24;;;;;;;4.05;2.00;;;;;;;;;;10329353;28;20030;-60
2023/05/02 02:36:30;;;;;;;4.20;1.83;;;;;;;;;;10321812;28;20041;-59
2023/05/02 02:41:39;;;;;;;3.25;1.90;;;;;;;;;;10305125;28;20053;-61
2023/05/02 02:46:54;;;;;;;3.60;1.90;;;;;;;;;;10324568;28;20065;-59
2023/05/02 02:52:11;;;;;;;3.63;1.90;;;;;;;;;;10329532;28;20026;-57
2023/05/02 02:57:38;;;;;;;4.85;1.83;;;;;;;;;;10328242;28;20506;-60
2023/05/02 03:02:42;;;;;;;4.20;1.95;;;;;;;;;;10326538;28;20038;-58
2023/05/02 03:07:43;;;;;;;2.25;1.75;;;;;;;;;;10312905;28;20402;-60
2023/05/02 03:12:43;;;;;;;2.20;1.75;;;;;;;;;;10311429;28;20057;-60
2023/05/02 03:17:44;;;;;;;4.53;1.73;;;;;;;;;;10328248;28;20042;-59
2023/05/02 03:22:45;;;;;;;2.67;1.70;;;;;;;;;;10325148;28;20037;-60
2023/05/02 03:27:45;;;;;;;2.53;2.05;;;;;;;;;;10328480;28;20378;-55
2023/05/02 03:32:46;;;;;;;4.47;1.58;;;;;;;;;;10325344;28;20030;-57
2023/05/02 03:37:47;;;;;;;1.70;1.60;;;;;;;;;;10328016;28;20043;-56
2023/05/02 03:42:47;;;;;;;2.72;1.70;;;;;;;;;;10327683;28;20038;-55
2023/05/02 03:47:48;;;;;;;1.85;1.70;;;;;;;;;;10313917;28;20026;-60
2023/05/02 03:52:48;;;;;;;2.83;1.60;;;;;;;;;;10326169;28;20022;-60
2023/05/02 03:57:49;;;;;;;2.70;1.60;;;;;;;;;;10324834;28;20407;-57
2023/05/02 04:02:50;;;;;;;2.33;1.55;;;;;;;;;;10327212;28;20038;-60
2023/05/02 04:07:50;;;;;;;2.40;1.77;;;;;;;;;;10326100;28;20032;-56
2023/05/02 04:12:51;;;;;;;2.08;1.60;;;;;;;;;;10325789;28;20031;-55
2023/05/02 04:17:51;;;;;;;1.48;1.40;;;;;;;;;;10315436;28;20046;-55
2023/05/02 04:22:52;;;;;;;1.77;1.58;;;;;;;;;;10326042;28;20034;-57
2023/05/02 04:27:53;;;;;;;1.70;1.60;;;;;;;;;;10326816;28;20371;-56
2023/05/02 04:32:53;;;;;;;1.95;1.58;;;;;;;;;;10326803;28;20037;-59
2023/05/02 04:37:54;;;;;;;1.80;1.65;;;;;;;;;;10320911;28;20069;-57
2023/05/02 04:42:54;;;;;;;1.77;1.63;;;;;;;;;;10324684;28;20038;-58
2023/05/02 04:47:56;;;;;;;3.38;1.75;;;;;;;;;;10323571;28;20046;-57
2023/05/02 04:52:57;;;;;;;1.58;1.45;;;;;;;;;;10325988;28;20466;-57
2023/05/02 04:57:58;;;;;;;4.30;1.67;;;;;;;;;;10316803;28;20089;-58
2023/05/02 05:02:58;;;;;;;3.08;1.50;;;;;;;;;;10325299;28;20050;-58
2023/05/02 05:07:59;;;;;;;1.73;1.42;;;;;;;;;;10299912;28;20034;-57
2023/05/02 05:12:59;;;;;;;2.00;1.45;;;;;;;;;;10326936;28;20410;-55
2023/05/02 05:18:01;;;;;;;2.50;1.70;;;;;;;;;;10317326;28;20488;-57
2023/05/02 05:23:01;;;;;;;1.50;1.40;;;;;;;;;;10318273;28;20466;-55
2023/05/02 05:28:02;;;;;;;3.55;1.42;;;;;;;;;;10323585;28;20029;-56
2023/05/02 05:33:02;;;;;;;1.83;1.55;;;;;;;;;;10336155;28;20026;-60
2023/05/02 05:38:03;;;;;;;1.48;1.38;;;;;;;;;;10325741;28;20060;-61
2023/05/02 05:43:04;;;;;;;1.80;1.40;;;;;;;;;;10319002;28;20262;-59
2023/05/02 05:48:05;;;;;;;9.52;1.90;;;;;;;;;;10317636;28;20278;-58
2023/05/02 05:53:06;;;;;;;10.52;2.22;;;;;;;;;;10322484;28;20475;-60
2023/05/02 05:58:07;;;;;;;3.03;1.60;;;;;;;;;;10331548;28;20042;-59
2023/05/02 06:03:07;;;;;;;3.50;1.90;;;;;;;;;;10333779;28;20262;-56
2023/05/02 06:08:09;;;;;;;2.47;1.75;;;;;;;;;;10325537;28;20549;-59
2023/05/02 06:13:09;;;;;;;5.10;1.85;;;;;;;;;;10320079;28;20035;-57
2023/05/02 06:18:10;;;;;;;4.18;1.90;;;;;;;;;;10325266;28;20033;-59
2023/05/02 06:23:10;;;;;;;10.15;2.17;;;;;;;;;;10326620;28;20026;-56
2023/05/02 06:28:11;;;;;;;12.63;2.08;;;;;;;;;;10331024;28;20023;-55
2023/05/02 06:33:11;;;;;;;8.43;1.73;;;;;;;;;;10329891;28;20029;-55
2023/05/02 06:38:12;;;;;;;12.07;2.65;;;;;;;;;;10329963;28;20042;-54
2023/05/02 06:43:13;;;;;;;4.30;1.70;;;;;;;;;;10329925;28;20026;-58
2023/05/02 06:48:14;;;;;;;15.10;3.05;;;;;;;;;;10331212;28;20034;-57
2023/05/02 06:53:15;;;;;;;10.30;1.95;;;;;;;;;;10329667;28;20406;-56
2023/05/02 06:58:15;;;;;;;3.80;2.00;;;;;;;;;;10319552;28;20474;-55
2023/05/02 07:03:16;;;;;;;5.30;1.80;;;;;;;;;;10330778;28;20038;-57
2023/05/02 07:08:17;;;;;;;7.70;2.00;;;;;;;;;;10329400;28;20061;-55
2023/05/02 07:13:18;;;;;;;8.23;2.20;;;;;;;;;;10328091;28;20065;-57
2023/05/02 07:18:18;;;;;;;7.80;2.15;;;;;;;;;;10329271;28;20037;-58
2023/05/02 07:23:19;;;;;;;4.18;2.05;;;;;;;;;;10329906;28;20034;-58
2023/05/02 07:28:20;;;;;;;5.07;1.88;;;;;;;;;;10328748;28;20035;-60
2023/05/02 07:33:20;;;;;;;12.38;2.13;;;;;;;;;;10328165;28;20026;-59
2023/05/02 07:38:21;;;;;;;6.95;2.17;;;;;;;;;;10327731;28;20054;-56
2023/05/02 07:43:21;;;;;;;5.05;1.80;;;;;;;;;;10323023;28;20026;-57
2023/05/02 07:48:22;;;;;;;4.03;1.65;;;;;;;;;;10328078;28;20030;-57
2023/05/02 07:53:23;;;;;;;6.78;1.88;;;;;;;;;;10327039;28;20030;-56
2023/05/02 07:58:24;;;;;;;2.97;1.50;;;;;;;;;;10327468;28;20034;-59
2023/05/02 08:03:25;;;;;;;6.43;1.60;;;;;;;;;;10327420;28;20037;-56
2023/05/02 08:08:26;;;;;;;3.10;1.83;;;;;;;;;;10325945;28;20031;-57
2023/05/02 08:13:27;;;;;;;3.60;1.60;;;;;;;;;;10325773;28;20029;-60
2023/05/02 08:18:27;;;;;;;4.78;2.00;;;;;;;;;;10335333;28;20040;-58
2023/05/02 08:23:28;;;;;;;4.45;1.63;;;;;;;;;;10324509;28;20035;-59
2023/05/02 08:28:29;;;;;;;3.75;1.67;;;;;;;;;;10326996;28;20481;-60
2023/05/02 08:33:29;;;;;;;3.58;1.52;;;;;;;;;;10326529;28;20031;-60
2023/05/02 08:38:30;;;;;;;1.50;1.40;;;;;;;;;;10326333;28;20054;-60
2023/05/02 08:43:32;;;;;;;3.55;1.50;;;;;;;;;;10312888;28;20073;-59
2023/05/02 08:48:35;;;;;;;5.10;1.50;;;;;;;;;;10308591;28;20022;-60
2023/05/02 08:53:38;;;;;;;5.95;1.73;;;;;;;;;;10324279;28;20026;-58
2023/05/02 08:58:40;;;;;;;4.88;1.90;;;;;;;;;;10319416;28;20038;-59
2023/05/02 09:03:43;;;;;;;3.58;1.67;;;;;;;;;;10330469;28;20026;-59
2023/05/02 09:08:53;;;;;;;3.97;1.75;;;;;;;;;;10321316;28;20034;-55
2023/05/02 09:13:54;;;;;;;2.45;1.40;;;;;;;;;;10317100;28;20038;-54
2023/05/02 09:18:58;;;;;;;3.42;1.60;;;;;;;;;;10329719;28;20077;-59
2023/05/02 09:23:59;;;;;;;1.85;1.38;;;;;;;;;;10324708;28;20450;-59
2023/05/02 09:29:04;;;;;;;4.47;1.50;;;;;;;;;;10330375;28;20526;-58
2023/05/02 09:34:16;;;;;;;2.95;1.48;;;;;;;;;;10331367;28;20042;-59
2023/05/02 09:39:28;;;;;;;5.43;1.85;;;;;;;;;;10313532;28;20054;-59
2023/05/02 09:44:37;;;;;;;2.45;1.30;;;;;;;;;;10337271;28;20030;-58
2023/05/02 09:49:45;;;;;;;2.85;1.50;;;;;;;;;;10325277;28;20061;-59
2023/05/02 09:54:46;;;;;;;6.13;1.67;;;;;;;;;;10324658;28;20572;-59
2023/05/02 09:59:57;;;;;;;3.80;1.45;;;;;;;;;;10324329;28;20515;-58
2023/05/02 10:05:00;;;;;;;3.28;1.60;;;;;;;;;;10324498;28;20033;-58
2023/05/02 10:10:01;;;;;;;4.25;1.35;;;;;;;;;;10345621;28;20477;-58
2023/05/02 10:15:03;;;;;;;2.20;1.30;;;;;;;;;;10337748;28;20054;-59
2023/05/02 10:20:06;;;;;;;2.92;1.50;;;;;;;;;;10344878;28;20038;-58
2023/05/02 10:25:08;;;;;;;5.70;1.30;;;;;;;;;;10317536;28;20414;-58
2023/05/02 10:30:11;;;;;;;2.40;1.40;;;;;;;;;;10338103;28;20062;-59
2023/05/02 10:35:12;;;;;;;3.20;1.88;;;;;;;;;;10337381;28;20044;-58
2023/05/02 10:40:13;;;;;;;3.38;1.30;;;;;;;;;;10349607;28;20054;-56
2023/05/02 10:45:34;;;;;;;2.10;1.67;;;;;;;;;;10346066;28;20125;-57
2023/05/02 10:50:47;;;;;;;2.38;1.50;;;;;;;;;;10335126;28;20445;-59
2023/05/02 10:56:19;;;;;;;2.50;1.30;;;;;;;;;;10344595;28;20398;-57
2023/05/02 11:01:29;;;;;;;2.03;1.52;;;;;;;;;;10331260;28;20445;-58
2023/05/02 11:06:36;;;;;;;1.10;1.10;;;;;;;;;;10342568;28;20042;-59
2023/05/02 11:11:42;;;;;;;2.15;1.38;;;;;;;;;;10338537;28;20089;-59
2023/05/02 11:16:59;;;;;;;1.73;1.48;;;;;;;;;;10337986;28;20026;-58
2023/05/02 11:22:18;;;;;;;4.33;1.40;;;;;;;;;;10341401;28;20033;-55
2023/05/02 11:27:28;;;;;;;2.22;1.63;;;;;;;;;;10319495;28;20468;-57
2023/05/02 11:32:48;;;;;;;3.08;1.25;;;;;;;;;;10337410;28;20085;-59
2023/05/02 11:38:10;;;;;;;7.13;1.50;;;;;;;;;;10338500;28;20054;-58
2023/05/02 11:43:14;;;;;;;3.00;1.63;;;;;;;;;;10316564;28;20031;-56
2023/05/02 11:48:20;;;;;;;1.55;1.10;;;;;;;;;;10325389;28;20030;-58
2023/05/02 11:53:28;;;;;;;1.90;1.33;;;;;;;;;;10322004;28;20023;-59
2023/05/02 11:58:32;;;;;;;2.93;1.50;;;;;;;;;;10327203;28;20030;-56
2023/05/02 12:03:32;;;;;;;2.47;1.20;;;;;;;;;;10328711;28;20097;-56
2023/05/02 12:08:33;;;;;;;1.88;1.45;;;;;;;;;;10325576;28;20137;-58
2023/05/02 12:13:34;;;;;;;1.35;1.25;;;;;;;;;;10326507;28;20034;-56
2023/05/02 12:18:35;;;;;;;2.50;1.30;;;;;;;;;;10324908;28;20091;-58
2023/05/02 12:23:36;;;;;;;2.63;1.52;;;;;;;;;;10327631;28;20060;-56
2023/05/02 12:28:53;;;;;;;7.97;1.60;;;;;;;;;;10307869;28;20029;-54
2023/05/02 12:33:56;;;;;;;1.80;1.30;;;;;;;;;;10315250;28;20620;-54
2023/05/02 12:38:58;;;;;;;4.20;1.45;;;;;;;;;;10311606;28;20078;-54
2023/05/02 12:43:59;;;;;;;5.68;1.23;;;;;;;;;;10324860;28;20353;-53
2023/05/02 12:49:08;;;;;;;2.53;1.33;;;;;;;;;;10325201;28;20077;-56
2023/05/02 12:54:19;;;;;;;1.77;1.48;;;;;;;;;;10326585;28;20041;-55
2023/05/02 12:59:31;;;;;;;1.63;1.10;;;;;;;;;;10320757;28;20134;-52
2023/05/02 13:04:39;;;;;;;3.78;1.40;;;;;;;;;;10325280;28;20127;-56
2023/05/02 13:09:40;;;;;;;5.63;1.52;;;;;;;;;;10325585;28;20072;-52
2023/05/02 13:14:41;;;;;;;6.05;1.13;;;;;;;;;;10316258;28;20033;-53
2023/05/02 13:19:41;;;;;;;3.08;1.48;;;;;;;;;;10323902;28;20034;-54
2023/05/02 13:24:42;;;;;;;5.15;1.60;;;;;;;;;;10324680;28;20041;-53
2023/05/02 13:29:44;;;;;;;1.75;1.45;;;;;;;;;;10324460;28;20031;-53
2023/05/02 13:34:44;;;;;;;1.42;1.20;;;;;;;;;;10322607;28;20030;-54
2023/05/02 13:39:45;;;;;;;4.85;1.58;;;;;;;;;;10324495;28;20050;-53
2023/05/02 13:44:46;;;;;;;8.65;1.63;;;;;;;;;;10321758;28;20035;-56
2023/05/02 13:49:46;;;;;;;1.70;1.27;;;;;;;;;;10323360;28;20039;-53
2023/05/02 13:54:47;;;;;;;7.70;1.60;;;;;;;;;;10322309;28;20061;-56
2023/05/02 13:59:47;;;;;;;1.92;1.30;;;;;;;;;;10334085;28;20041;-57
2023/05/02 14:04:48;;;;;;;7.63;1.40;;;;;;;;;;10338720;28;20462;-57
2023/05/02 14:09:49;;;;;;;3.30;1.42;;;;;;;;;;10331519;28;20034;-57
2023/05/02 14:14:51;;;;;;;2.85;1.60;;;;;;;;;;10332318;28;20030;-55
2023/05/02 14:19:52;;;;;;;2.60;1.20;;;;;;;;;;10334948;28;20041;-54
2023/05/02 14:24:52;;;;;;;3.03;1.23;;;;;;;;;;10334828;28;20061;-55
2023/05/02 14:29:53;;;;;;;4.22;1.33;;;;;;;;;;10338399;28;20034;-54
2023/05/02 14:34:53;;;;;;;2.85;1.38;;;;;;;;;;10340315;28;20035;-55
2023/05/02 14:39:55;;;;;;;1.60;1.10;;;;;;;;;;10337051;28;20054;-56
2023/05/02 14:44:55;;;;;;;1.98;1.40;;;;;;;;;;10320212;28;20427;-55
2023/05/02 14:49:56;;;;;;;3.33;1.45;;;;;;;;;;10335416;28;20113;-55
2023/05/02 14:55:01;;;;;;;2.10;1.20;;;;;;;;;;10331739;28;20030;-58
2023/05/02 15:00:03;;;;;;;3.45;1.50;;;;;;;;;;10328485;28;20085;-54
2023/05/02 15:05:10;;;;;;;1.50;1.25;;;;;;;;;;10327796;28;20030;-57
2023/05/02 15:10:11;;;;;;;3.65;1.20;;;;;;;;;;10330898;28;20027;-58
2023/05/02 15:15:12;;;;;;;2.70;1.50;;;;;;;;;;10333080;28;20030;-59
2023/05/02 15:20:13;;;;;;;8.68;1.42;;;;;;;;;;10337276;28;20172;-60
2023/05/02 15:25:13;;;;;;;10.20;1.40;;;;;;;;;;10333026;28;20034;-57
2023/05/02 15:30:17;;;;;;;9.43;1.33;;;;;;;;;;10326175;28;20486;-56
2023/05/02 15:35:17;;;;;;;16.92;1.80;;;;;;;;;;10328792;28;20105;-59
2023/05/02 15:40:18;;;;;;;5.38;1.63;;;;;;;;;;10326547;28;20096;-56
2023/05/02 15:45:19;;;;;;;3.88;1.48;;;;;;;;;;10315589;28;20019;-57
2023/05/02 15:50:19;;;;;;;7.65;1.65;;;;;;;;;;10323712;28;20101;-57
2023/05/02 15:55:20;;;;;;;2.92;1.33;;;;;;;;;;10305314;28;20419;-55
2023/05/02 16:00:20;;;;;;;3.22;1.35;;;;;;;;;;10322893;28;20092;-59
2023/05/02 16:05:21;;;;;;;5.63;2.15;;;;;;;;;;10322912;28;20035;-59
2023/05/02 16:10:22;;;;;;;4.32;1.45;;;;;;;;;;10322747;28;20402;-57
2023/05/02 16:15:23;;;;;;;3.38;1.30;;;;;;;;;;10322101;28;20385;-58
2023/05/02 16:20:23;;;;;;;6.22;1.40;;;;;;;;;;10323303;28;20227;-54
2023/05/02 16:25:24;;;;;;;5.60;1.70;;;;;;;;;;10324566;28;20041;-54
2023/05/02 16:30:26;;;;;;;2.78;1.45;;;;;;;;;;10322718;28;20057;-57
2023/05/02 16:35:26;;;;;;;1.55;1.30;;;;;;;;;;10328073;28;20121;-54
2023/05/02 16:40:27;;;;;;;2.45;1.42;;;;;;;;;;10330691;28;20046;-54
2023/05/02 16:45:28;;;;;;;3.78;1.60;;;;;;;;;;10311327;28;20037;-53
2023/05/02 16:50:29;;;;;;;2.63;1.30;;;;;;;;;;10338233;28;20034;-54
2023/05/02 16:55:30;;;;;;;2.13;1.40;;;;;;;;;;10330413;28;20057;-54
2023/05/02 17:00:32;;;;;;;2.53;1.30;;;;;;;;;;10325431;28;20026;-57
2023/05/02 17:05:33;;;;;;;2.55;1.40;;;;;;;;;;10324900;28;20034;-56
2023/05/02 17:10:34;;;;;;;3.28;1.50;;;;;;;;;;10325284;28;20489;-54
2023/05/02 17:15:37;;;;;;;2.17;1.35;;;;;;;;;;10321339;28;20470;-54
2023/05/02 17:20:38;;;;;;;8.50;1.48;;;;;;;;;;10321086;28;20286;-60
2023/05/02 17:25:40;;;;;;;2.45;1.48;;;;;;;;;;10314093;28;20334;-61
2023/05/02 17:30:42;;;;;;;2.33;1.10;;;;;;;;;;10317233;28;20406;-55
2023/05/02 17:35:42;;;;;;;2.42;1.23;;;;;;;;;;10318516;28;20135;-57
2023/05/02 17:40:43;;;;;;;1.63;1.23;;;;;;;;;;10318176;28;20081;-60
2023/05/02 17:45:44;;;;;;;2.92;1.25;;;;;;;;;;10310602;28;20034;-57
2023/05/02 17:50:44;;;;;;;2.88;1.40;;;;;;;;;;10307763;28;20042;-61
2023/05/02 17:55:45;;;;;;;2.20;1.20;;;;;;;;;;10318161;28;20518;-61
2023/05/02 18:00:45;;;;;;;1.38;1.20;;;;;;;;;;10318036;28;20026;-61
2023/05/02 18:05:46;;;;;;;6.13;1.60;;;;;;;;;;10316082;28;20029;-60
2023/05/02 18:10:47;;;;;;;1.88;1.38;;;;;;;;;;10314542;28;20534;-61
2023/05/02 18:15:58;;;;;;;1.52;1.20;;;;;;;;;;10317200;28;20585;-61
2023/05/02 18:20:59;;;;;;;1.65;1.10;;;;;;;;;;10321944;28;20034;-53
2023/05/02 18:26:00;;;;;;;4.50;1.23;;;;;;;;;;10321801;28;20058;-57
2023/05/02 18:31:01;;;;;;;3.08;1.33;;;;;;;;;;10320114;28;20505;-55
2023/05/02 18:36:01;;;;;;;2.55;1.42;;;;;;;;;;10315370;28;20262;-57
2023/05/02 18:41:02;;;;;;;2.40;1.20;;;;;;;;;;10321706;28;20061;-56
2023/05/02 18:46:03;;;;;;;1.20;1.10;;;;;;;;;;10316031;28;20458;-57
2023/05/02 18:51:04;;;;;;;1.20;1.10;;;;;;;;;;10312845;28;20134;-55
2023/05/02 18:56:12;;;;;;;1.33;1.10;;;;;;;;;;10319563;28;20126;-59
2023/05/02 19:01:14;;;;;;;3.07;1.40;;;;;;;;;;10320433;28;20097;-61
2023/05/02 19:06:17;;;;;;;1.30;1.20;;;;;;;;;;10325322;28;20494;-59
2023/05/02 19:11:18;;;;;;;2.72;1.30;;;;;;;;;;10319254;28;20030;-54
2023/05/02 19:16:20;;;;;;;3.28;1.20;;;;;;;;;;10329420;28;20037;-61
2023/05/02 19:21:21;;;;;;;2.05;1.20;;;;;;;;;;10328969;28;20572;-59
2023/05/02 19:26:22;;;;;;;1.27;1.17;;;;;;;;;;10328726;28;20085;-61
2023/05/02 19:31:23;;;;;;;2.13;1.10;;;;;;;;;;10331507;28;20360;-61
2023/05/02 19:36:24;;;;;;;5.10;1.52;;;;;;;;;;10325063;28;20113;-54
2023/05/02 19:46:35;;;;;;;3.05;1.20;;;;;;;;;;10463044;23;20078;-54
2023/05/02 19:51:35;;;;;;;3.70;1.08;;;;;;;;;;10325525;28;20019;-61
2023/05/02 19:56:36;;;;;;;1.48;1.25;;;;;;;;;;10312457;28;20398;-55
2023/05/02 20:01:36;;;;;;;1.90;1.10;;;;;;;;;;10310209;28;20041;-60
2023/05/02 20:06:37;;;;;;;1.73;1.10;;;;;;;;;;10303606;28;20117;-62
2023/05/02 20:11:37;;;;;;;1.00;1.00;;;;;;;;;;10313370;28;20473;-62
2023/05/02 20:16:38;;;;;;;1.80;1.27;;;;;;;;;;10309139;28;20037;-60
2023/05/02 20:21:39;;;;;;;1.25;1.10;;;;;;;;;;10308978;28;20026;-55
2023/05/02 20:26:39;;;;;;;1.17;1.00;;;;;;;;;;10307879;28;20030;-57
2023/05/02 20:31:40;;;;;;;1.33;1.00;;;;;;;;;;10307859;28;20038;-56
2023/05/02 20:36:40;;;;;;;1.60;1.15;;;;;;;;;;10299462;28;20031;-57
2023/05/02 20:41:42;;;;;;;2.25;1.08;;;;;;;;;;10306643;28;20049;-61
2023/05/02 20:46:42;;;;;;;1.05;1.05;;;;;;;;;;10300555;28;20105;-58
2023/05/02 20:51:43;;;;;;;4.63;1.38;;;;;;;;;;10306866;28;20022;-58
2023/05/02 20:56:43;;;;;;;3.80;1.40;;;;;;;;;;10308557;28;20180;-56
2023/05/02 21:01:44;;;;;;;2.75;1.40;;;;;;;;;;10300295;28;20394;-57
2023/05/02 21:06:45;;;;;;;5.72;1.80;;;;;;;;;;10300743;28;20466;-55
2023/05/02 21:11:46;;;;;;;6.93;1.67;;;;;;;;;;10304469;28;20033;-51
2023/05/02 21:16:49;;;;;;;6.63;1.90;;;;;;;;;;10293358;28;20034;-50
2023/05/02 21:21:50;;;;;;;6.03;1.65;;;;;;;;;;10319050;28;20030;-53
2023/05/02 21:26:51;;;;;;;20.58;2.08;;;;;;;;;;10318020;28;20034;-54
2023/05/02 21:31:51;;;;;;;3.30;1.75;;;;;;;;;;10312782;28;20034;-51
2023/05/02 21:36:52;;;;;;;4.30;1.75;;;;;;;;;;10304528;28;20469;-55
2023/05/02 21:41:52;;;;;;;5.85;1.55;;;;;;;;;;10310898;28;20027;-55
2023/05/02 21:46:53;;;;;;;8.13;1.65;;;;;;;;;;10322423;28;20051;-52
2023/05/02 21:51:53;;;;;;;5.82;1.65;;;;;;;;;;10303811;28;20480;-57
2023/05/02 21:56:54;;;;;;;5.38;1.30;;;;;;;;;;10319968;28;20037;-55
2023/05/02 22:01:56;;;;;;;1.92;1.20;;;;;;;;;;10308478;28;20089;-56
2023/05/02 22:06:57;;;;;;;4.05;1.60;;;;;;;;;;10314067;28;20037;-54
2023/05/02 22:11:58;;;;;;;4.22;1.73;;;;;;;;;;10294404;28;20030;-56
2023/05/02 22:17:01;;;;;;;2.83;1.42;;;;;;;;;;10309712;28;20547;-53
2023/05/02 22:22:02;;;;;;;2.63;1.40;;;;;;;;;;10308736;28;20037;-53
2023/05/02 22:27:03;;;;;;;3.22;1.40;;;;;;;;;;10298833;28;20027;-55
2023/05/02 22:32:04;;;;;;;4.05;1.63;;;;;;;;;;10329043;28;20465;-54
2023/05/02 22:37:04;;;;;;;4.28;1.60;;;;;;;;;;10295393;28;20045;-53
2023/05/02 22:42:05;;;;;;;8.05;1.50;;;;;;;;;;10313453;28;20326;-54
2023/05/02 22:47:07;;;;;;;2.63;1.27;;;;;;;;;;10312535;28;20040;-51
2023/05/02 22:52:08;;;;;;;2.88;1.20;;;;;;;;;;10306843;28;20030;-50
2023/05/02 22:57:08;;;;;;;5.68;1.52;;;;;;;;;;10314627;28;20030;-53
2023/05/02 23:02:12;;;;;;;2.75;1.50;;;;;;;;;;10315196;28;20416;-55
2023/05/02 23:07:13;;;;;;;4.32;1.30;;;;;;;;;;10329875;28;20030;-52
2023/05/02 23:12:13;;;;;;;6.15;1.33;;;;;;;;;;10318818;28;20030;-53
2023/05/02 23:17:14;;;;;;;4.10;1.17;;;;;;;;;;10325310;28;20027;-56
2023/05/02 23:22:15;;;;;;;4.80;1.60;;;;;;;;;;10317954;28;20034;-54
2023/05/02 23:27:15;;;;;;;1.38;1.27;;;;;;;;;;10319697;28;20046;-57
2023/05/02 23:32:16;;;;;;;3.80;1.55;;;;;;;;;;10309164;28;20043;-60
2023/05/02 23:37:16;;;;;;;1.40;1.30;;;;;;;;;;10314728;28;20317;-51
2023/05/02 23:42:17;;;;;;;1.70;1.23;;;;;;;;;;10303282;28;20458;-53
2023/05/02 23:47:18;;;;;;;4.63;1.20;;;;;;;;;;10320444;28;20065;-53
2023/05/02 23:52:19;;;;;;;4.50;1.40;;;;;;;;;;10308149;28;20026;-54
2023/05/02 23:57:20;;;;;;;1.98;1.38;;;;;;;;;;10311919;28;20570;-55
